Impacts METAR Board
IDs:

KCLE - Cleveland/Hopkins In, OH, US

Updated at: 0500 UTC 21 Apr 2018
Potential Impact None Slight Moderate High
Time 20/17Z 20/18Z 20/19Z 20/20Z 20/21Z 20/22Z 20/23Z 21/00Z 21/01Z 21/02Z 21/03Z 21/04Z 21/05Z
Temp46 48 48 48 49 49 49 47 45 44 42 38 37
Dewpt19 19 22 21 22 21 22 20 20 20 21 23 24
Altim30.50 30.49 30.50 30.48 30.48 30.48 30.48 30.48 30.48 30.48 30.47 30.48 30.49
VIS10 10 10 10 10 10 10 10 10 10 10 10 10
CIG-- -- -- -- -- -- -- -- -- -- -- -- --
CoverCLRCLRCLRCLRCLRCLRCLRCLRCLRCLRCLRCLRCLR
FltCatVFRVFRVFRVFRVFRVFRVFRVFRVFRVFRVFRVFRVFR
WX--------------------------
WDir350360360310320350303603060000
WSpd7 10 9 9 8 8 6 4 4 4 0 0 0
WGst-- 16 14 -- 16 -- -- -- -- -- -- -- --
Raw hourly METARs
KCLE 201651Z 35007KT 10SM CLR 08/M07 A3050 RMK SLP335 T00781072
KCLE 201751Z 36010G16KT 10SM CLR 09/M07 A3049 RMK A02 SLP333 T00891072 10094 20022 50001
KCLE 201851Z COR 36009G14KT 10SM CLR 09/M06 A3050 RMK AO2 SLP335 T00891056 TSNO
KCLE 201951Z 31009KT 10SM CLR 09/M06 A3048 RMK AO2 SLP329 T00891061
KCLE 202051Z 32008G16KT 10SM CLR 09/M06 A3048 RMK AO2 SLP329 T00941056 58004
KCLE 202151Z 35008KT 10SM CLR 09/M06 A3048 RMK AO2 SLP327 T00941061
KCLE 202251Z 03006KT 10SM CLR 09/M06 A3048 RMK AO2 SLP327 T00941056
KCLE 202351Z 36004KT 10SM CLR 08/M07 A3048 RMK AO2 SLP328 T00831067 10100 20083 53000
KCLE 210051Z 03004KT 10SM CLR 07/M07 A3048 RMK AO2 SLP328 T00721067
KCLE 210151Z 06004KT 10SM CLR 07/M07 A3048 RMK AO2 SLP326 T00671067
KCLE 210251Z 00000KT 10SM CLR 06/M06 A3047 RMK AO2 SLP325 T00561061 57003
KCLE 210351Z 00000KT 10SM CLR 03/M05 A3048 RMK AO2 SLP326 T00331050
KCLE 210451Z 00000KT 10SM CLR 03/M04 A3049 RMK AO2 SLP329 T00281044 401001022



Page loaded:  05:52 UTC  |   10:52 PM Pacific  |   11:52 PM Mountain  |   12:52 AM Central  |   01:52 AM Eastern

 

ADVISORIES

FORECASTS

FORECASTS

OBSERVATIONS

USER TOOLS

ABOUT US